createdAt,value
2023-06-04T00:01:48.758Z,100145.67
2023-06-04T00:04:34.820Z,100146.73
2023-06-04T00:07:20.392Z,100148.73
2023-06-04T00:10:09.537Z,100151.85
2023-06-04T00:12:54.990Z,100151.44
2023-06-04T00:15:40.948Z,100152.41
2023-06-04T00:18:26.772Z,100152.81
2023-06-04T00:21:12.057Z,100155.40
2023-06-04T00:23:58.217Z,100157.58
2023-06-04T00:26:44.067Z,100153.98
2023-06-04T00:29:30.146Z,100156.23
2023-06-04T00:32:15.939Z,100158.98
2023-06-04T00:35:02.238Z,100160.92
2023-06-04T00:37:47.976Z,100159.98
2023-06-04T00:40:35.695Z,100159.34
2023-06-04T00:43:21.118Z,100163.44
2023-06-04T00:46:07.410Z,100158.62
2023-06-04T00:48:53.521Z,100156.52
2023-06-04T00:51:39.010Z,100156.34
2023-06-04T00:54:25.226Z,100156.50
2023-06-04T00:57:10.603Z,100159.48
2023-06-04T00:59:56.325Z,100158.91
2023-06-04T01:02:42.559Z,100166.52
2023-06-04T01:05:32.967Z,100170.20
2023-06-04T01:08:20.632Z,100169.15
2023-06-04T01:11:06.670Z,100168.02
2023-06-04T01:13:52.569Z,100171.02
2023-06-04T01:16:51.593Z,100171.96
2023-06-04T01:20:00.658Z,100175.12
2023-06-04T01:23:01.201Z,100173.95
2023-06-04T01:25:50.783Z,100173.29
2023-06-04T01:28:36.934Z,100176.61
2023-06-04T01:31:24.209Z,100176.25
2023-06-04T01:34:09.708Z,100178.23
2023-06-04T01:36:55.538Z,100177.14
2023-06-04T01:39:41.716Z,100180.07
2023-06-04T01:42:26.960Z,100181.07
2023-06-04T01:45:12.435Z,100181.59
2023-06-04T01:47:58.143Z,100188.34
2023-06-04T01:50:43.606Z,100188.77
2023-06-04T01:53:29.149Z,100193.48
2023-06-04T01:56:15.503Z,100196.85
2023-06-04T01:59:02.306Z,100192.76
2023-06-04T02:01:48.028Z,100189.15
2023-06-04T02:04:33.707Z,100190.45
2023-06-04T02:07:21.542Z,100187.64
2023-06-04T02:10:08.878Z,100187.41
2023-06-04T02:12:57.000Z,100191.10
2023-06-04T02:15:42.833Z,100193.52
2023-06-04T02:18:29.024Z,100193.27
2023-06-04T02:21:15.473Z,100192.71
2023-06-04T02:24:01.120Z,100195.92
2023-06-04T02:26:47.503Z,100202.35
2023-06-04T02:29:33.492Z,100198.94
2023-06-04T02:32:18.910Z,100195.02
2023-06-04T02:35:05.032Z,100202.88
2023-06-04T02:37:51.018Z,100201.59
2023-06-04T02:40:37.230Z,100202.63
2023-06-04T02:43:23.867Z,100202.38
2023-06-04T02:46:09.504Z,100201.73
2023-06-04T02:48:55.196Z,100202.39
2023-06-04T02:51:49.569Z,100204.98
2023-06-04T02:54:35.700Z,100211.17
2023-06-04T02:57:23.021Z,100216.61
2023-06-04T03:00:13.132Z,100221.21
2023-06-04T03:03:02.533Z,100220.83
2023-06-04T03:05:49.065Z,100222.66
2023-06-04T03:08:34.437Z,100228.21
2023-06-04T03:11:22.887Z,100231.28
2023-06-04T03:14:08.695Z,100231.73
2023-06-04T03:16:56.117Z,100237.38
2023-06-04T03:19:43.091Z,100238.55
2023-06-04T03:22:29.477Z,100238.80
2023-06-04T03:25:15.134Z,100236.27
2023-06-04T03:28:01.448Z,100227.02
2023-06-04T03:30:47.139Z,100225.92
2023-06-04T03:33:33.061Z,100222.63
2023-06-04T03:36:20.044Z,100226.60
2023-06-04T03:39:05.764Z,100227.36
2023-06-04T03:41:51.813Z,100232.42
2023-06-04T03:44:39.627Z,100230.80
2023-06-04T03:47:26.376Z,100231.35
2023-06-04T03:50:12.035Z,100232.33
2023-06-04T03:52:57.779Z,100230.77
2023-06-04T03:55:43.583Z,100226.56
2023-06-04T03:58:29.798Z,100230.36
2023-06-04T04:01:16.601Z,100231.92
2023-06-04T04:04:02.142Z,100227.25
2023-06-04T04:06:49.181Z,100230.27
2023-06-04T04:09:35.647Z,100231.46
2023-06-04T04:12:21.684Z,100236.29
2023-06-04T04:15:09.631Z,100238.06
2023-06-04T04:17:56.264Z,100242.86
2023-06-04T04:20:43.396Z,100246.23
2023-06-04T04:23:30.541Z,100248.05
2023-06-04T04:26:18.027Z,100252.88
2023-06-04T04:29:05.188Z,100250.32
2023-06-04T04:31:54.470Z,100252.11
2023-06-04T04:34:52.562Z,100253.31
2023-06-04T04:37:39.802Z,100249.26
2023-06-04T04:40:26.789Z,100244.38
2023-06-04T04:43:13.395Z,100246.09
2023-06-04T04:45:59.433Z,100245.48
2023-06-04T04:48:45.364Z,100248.63
2023-06-04T04:51:31.483Z,100242.83
2023-06-04T04:54:17.033Z,100244.89
2023-06-04T04:57:13.489Z,100246.88
2023-06-04T05:00:01.277Z,100246.24
2023-06-04T05:02:47.991Z,100247.29
2023-06-04T05:05:34.304Z,100244.27
2023-06-04T05:08:22.529Z,100240.30
2023-06-04T05:11:11.671Z,100241.27
2023-06-04T05:14:02.072Z,100247.39
2023-06-04T05:16:51.664Z,100253.36
2023-06-04T05:19:43.440Z,100254.55
2023-06-04T05:22:33.370Z,100256.98
2023-06-04T05:25:22.755Z,100257.65
2023-06-04T05:28:14.408Z,100257.70
2023-06-04T05:31:03.688Z,100254.31
2023-06-04T05:33:54.429Z,100255.38
2023-06-04T05:36:48.455Z,100251.21
2023-06-04T05:39:39.521Z,100255.02
2023-06-04T05:42:34.393Z,100251.95
2023-06-04T05:45:23.449Z,100251.84
2023-06-04T05:48:12.456Z,100247.83
2023-06-04T05:51:01.694Z,100251.24
2023-06-04T05:53:50.471Z,100252.52
2023-06-04T05:56:39.456Z,100253.48
2023-06-04T05:59:29.420Z,100251.92
2023-06-04T06:02:19.063Z,100249.18
2023-06-04T06:05:10.451Z,100246.52
2023-06-04T06:15:49.830Z,100252.79
2023-06-04T06:18:36.244Z,100253.70
2023-06-04T06:21:22.179Z,100253.71
2023-06-04T06:24:08.097Z,100255.29
2023-06-04T06:26:54.294Z,100252.39
2023-06-04T06:29:41.903Z,100247.77
2023-06-04T06:32:28.367Z,100251.52
2023-06-04T06:35:14.094Z,100252.63
2023-06-04T06:37:59.892Z,100254.65
2023-06-04T06:40:45.137Z,100257.28
2023-06-04T06:43:31.008Z,100258.68
2023-06-04T06:46:16.589Z,100256.37
2023-06-04T06:49:02.099Z,100256.66
2023-06-04T06:51:48.025Z,100258.39
2023-06-04T06:54:33.604Z,100257.33
2023-06-04T06:57:20.065Z,100255.86
2023-06-04T07:00:07.110Z,100258.13
2023-06-04T07:02:52.862Z,100253.93
2023-06-04T07:05:38.945Z,100256.58
2023-06-04T07:08:26.164Z,100259.05
2023-06-04T07:11:14.483Z,100255.20
2023-06-04T07:14:00.141Z,100253.27
2023-06-04T07:16:45.983Z,100252.16
2023-06-04T07:19:33.251Z,100252.60
2023-06-04T07:22:18.777Z,100256.92
2023-06-04T07:25:04.384Z,100257.98
2023-06-04T07:27:51.726Z,100261.54
2023-06-04T07:30:38.927Z,100262.57
2023-06-04T07:33:27.032Z,100261.20
2023-06-04T07:36:14.250Z,100262.63
2023-06-04T07:39:00.340Z,100268.05
2023-06-04T07:41:45.930Z,100262.08
2023-06-04T07:44:31.459Z,100264.52
2023-06-04T07:47:17.311Z,100260.23
2023-06-04T07:50:03.717Z,100254.80
2023-06-04T07:52:49.726Z,100261.07
2023-06-04T07:55:36.358Z,100259.35
2023-06-04T07:58:21.608Z,100259.89
2023-06-04T08:01:07.632Z,100252.41
2023-06-04T08:03:54.385Z,100258.45
2023-06-04T08:06:40.838Z,100259.86
2023-06-04T08:09:26.642Z,100255.24
2023-06-04T08:12:12.400Z,100252.23
2023-06-04T08:14:58.342Z,100249.69
2023-06-04T08:17:44.478Z,100255.98
2023-06-04T08:20:29.856Z,100251.70
2023-06-04T08:23:15.313Z,100248.35
2023-06-04T08:26:00.834Z,100253.30
2023-06-04T08:28:50.178Z,100253.55
2023-06-04T08:31:36.102Z,100254.66
2023-06-04T08:34:21.766Z,100251.08
2023-06-04T08:37:08.011Z,100253.83
2023-06-04T08:39:54.182Z,100251.53
2023-06-04T08:42:42.405Z,100254.66
2023-06-04T08:45:28.192Z,100250.84
2023-06-04T08:48:13.837Z,100250.00
2023-06-04T08:50:59.399Z,100249.36
2023-06-04T08:53:48.819Z,100250.10
2023-06-04T08:56:35.376Z,100248.77
2023-06-04T08:59:23.368Z,100244.90
2023-06-04T09:02:09.476Z,100240.88
2023-06-04T09:04:55.154Z,100240.53
2023-06-04T09:07:43.865Z,100243.77
2023-06-04T09:10:31.236Z,100237.92
2023-06-04T09:13:17.174Z,100232.30
2023-06-04T09:16:04.083Z,100231.37
2023-06-04T09:18:49.643Z,100233.30
2023-06-04T09:21:35.094Z,100232.80
2023-06-04T09:24:22.078Z,100236.43
2023-06-04T09:27:14.890Z,100234.61
2023-06-04T09:30:01.350Z,100226.77
2023-06-04T09:32:46.904Z,100227.42
2023-06-04T09:35:32.765Z,100227.25
2023-06-04T09:38:18.466Z,100217.90
2023-06-04T09:41:07.785Z,100211.98
2023-06-04T09:44:04.132Z,100212.52
2023-06-04T09:46:56.897Z,100211.02
2023-06-04T09:49:48.761Z,100213.09
2023-06-04T09:52:36.081Z,100208.72
2023-06-04T09:55:23.370Z,100206.25
2023-06-04T09:58:08.792Z,100205.48
2023-06-04T10:00:55.110Z,100203.67
2023-06-04T10:03:40.608Z,100201.95
2023-06-04T10:06:26.116Z,100202.73
2023-06-04T10:09:12.301Z,100194.48
2023-06-04T10:11:58.323Z,100191.83
2023-06-04T10:15:00.265Z,100188.77
2023-06-04T10:17:46.210Z,100187.48
2023-06-04T10:20:33.772Z,100187.90
2023-06-04T10:23:21.445Z,100194.95
2023-06-04T10:26:07.541Z,100192.01
2023-06-04T10:28:53.027Z,100188.45
2023-06-04T10:31:38.780Z,100187.30
2023-06-04T10:34:24.298Z,100186.36
2023-06-04T10:37:22.979Z,100181.96
2023-06-04T10:40:09.840Z,100176.88
2023-06-04T10:42:55.170Z,100176.13
2023-06-04T10:45:41.532Z,100170.29
2023-06-04T10:48:27.387Z,100168.52
2023-06-04T10:51:13.091Z,100169.23
2023-06-04T10:53:59.275Z,100158.45
2023-06-04T10:56:44.549Z,100158.68
2023-06-04T10:59:30.103Z,100153.91
2023-06-04T11:02:15.740Z,100153.67
2023-06-04T11:05:10.932Z,100149.25
2023-06-04T11:07:56.460Z,100143.63
2023-06-04T11:10:43.716Z,100144.77
2023-06-04T11:13:30.784Z,100136.73
2023-06-04T11:16:20.743Z,100135.90
2023-06-04T11:19:06.496Z,100126.77
2023-06-04T11:21:52.094Z,100125.61
2023-06-04T11:24:37.535Z,100127.70
2023-06-04T11:27:35.658Z,100128.78
2023-06-04T11:30:22.994Z,100134.85
2023-06-04T11:33:08.865Z,100132.70
2023-06-04T11:35:54.726Z,100134.01
2023-06-04T11:38:40.348Z,100137.91
2023-06-04T11:41:32.671Z,100137.05
2023-06-04T11:44:21.757Z,100136.88
2023-06-04T11:47:07.809Z,100131.00
2023-06-04T11:49:57.259Z,100130.19
2023-06-04T11:52:43.208Z,100128.80
2023-06-04T11:55:29.128Z,100127.95
2023-06-04T11:58:14.750Z,100130.15
2023-06-04T12:01:00.943Z,100131.61
2023-06-04T12:03:46.401Z,100136.69
2023-06-04T12:06:32.327Z,100128.84
2023-06-04T12:09:22.616Z,100129.31
2023-06-04T12:12:08.826Z,100127.05
2023-06-04T12:15:00.978Z,100123.35
2023-06-04T12:17:53.489Z,100120.98
2023-06-04T12:20:40.390Z,100118.21
2023-06-04T12:23:26.332Z,100115.36
2023-06-04T12:26:29.641Z,100116.48
2023-06-04T12:29:15.990Z,100116.35
2023-06-04T12:32:12.928Z,100115.14
2023-06-04T12:34:58.997Z,100113.02
2023-06-04T12:37:44.336Z,100114.20
2023-06-04T12:40:30.615Z,100106.30
2023-06-04T12:43:16.395Z,100103.35
2023-06-04T12:46:02.205Z,100105.23
2023-06-04T12:48:48.098Z,100103.22
2023-06-04T12:51:33.466Z,100101.84
2023-06-04T12:54:19.073Z,100103.13
2023-06-04T12:57:04.628Z,100101.33
2023-06-04T12:59:50.292Z,100104.05
2023-06-04T13:02:37.110Z,100102.27
2023-06-04T13:05:22.782Z,100101.52
2023-06-04T13:08:10.145Z,100108.89
2023-06-04T13:10:58.572Z,100102.29
2023-06-04T13:13:47.452Z,100096.23
2023-06-04T13:16:37.461Z,100096.14
2023-06-04T13:19:27.945Z,100096.02
2023-06-04T13:22:16.428Z,100094.28
2023-06-04T13:25:05.121Z,100100.93
2023-06-04T13:27:54.428Z,100097.21
2023-06-04T13:30:43.538Z,100100.44
2023-06-04T13:33:35.435Z,100098.44
2023-06-04T13:36:24.255Z,100092.71
2023-06-04T13:39:13.468Z,100088.40
2023-06-04T13:42:03.436Z,100090.90
2023-06-04T13:44:52.468Z,100085.75
2023-06-04T13:47:41.414Z,100081.91
2023-06-04T13:50:31.454Z,100078.55
2023-06-04T13:53:21.558Z,100076.31
2023-06-04T13:56:10.472Z,100074.85
2023-06-04T13:58:58.433Z,100068.54
2023-06-04T14:01:47.550Z,100065.02
2023-06-04T14:04:36.971Z,100064.36
2023-06-04T14:15:13.810Z,100064.45
2023-06-04T14:17:59.620Z,100067.24
2023-06-04T14:20:45.883Z,100067.81
2023-06-04T14:23:32.138Z,100075.81
2023-06-04T14:26:19.080Z,100069.58
2023-06-04T14:29:04.632Z,100068.39
2023-06-04T14:31:50.505Z,100063.92
2023-06-04T14:34:36.567Z,100060.60
2023-06-04T14:37:22.728Z,100060.05
2023-06-04T14:40:09.620Z,100062.65
